LRCK - CONSTANTA / MIHAIL KOGALNICEANU-CONSTANTA

Compiled: 18:22:03 on 20/10/2018

Latest METAR/SPECI Reports

METAR LRCK 201800Z 36006KT CAVOK 15/09 Q1018 NOSIG=

Previous reports

METAR LRCK 201730Z 36007KT CAVOK 15/09 Q1018 NOSIG=
METAR LRCK 201700Z 36008KT CAVOK 15/09 Q1018 NOSIG=
METAR COR LRCK 201630Z 36008KT CAVOK 15/09 Q1018 NOSIG=
METAR LRCK 201630Z AUTO 01007KT 9999 SCT081/// OVC110/// 15/09 Q1018 NOSIG=

Latest TAF report

TAF LRCK 201700Z 2018/2118 36008KT CAVOK PROB40 TEMPO 2018/2022 5000 -SHRA SCT030CB PROB30 TEMPO 2102/2106 3000 BR BKN010=

Valid WARNINGS

No valid warnings for LRCK